createdAt,value
2019-05-01T00:02:15.050Z,66.80
2019-05-01T00:04:54.355Z,67.12
2019-05-01T00:07:24.849Z,67.49
2019-05-01T00:09:53.656Z,67.90
2019-05-01T00:12:22.414Z,68.33
2019-05-01T00:14:51.625Z,67.95
2019-05-01T00:17:20.930Z,68.28
2019-05-01T00:19:49.657Z,68.94
2019-05-01T00:22:18.364Z,68.76
2019-05-01T00:24:47.134Z,68.66
2019-05-01T00:27:15.852Z,68.76
2019-05-01T00:29:44.558Z,68.79
2019-05-01T00:32:13.289Z,69.20
2019-05-01T00:34:42.007Z,69.44
2019-05-01T00:37:10.756Z,69.19
2019-05-01T00:39:39.461Z,68.94
2019-05-01T00:42:08.169Z,68.78
2019-05-01T00:44:36.879Z,68.84
2019-05-01T00:47:05.591Z,68.75
2019-05-01T00:49:34.648Z,68.73
2019-05-01T00:52:03.351Z,69.05
2019-05-01T00:54:33.629Z,69.00
2019-05-01T00:57:03.942Z,68.99
2019-05-01T00:59:34.220Z,68.98
2019-05-01T01:02:20.861Z,69.18
2019-05-01T01:04:49.666Z,69.27
2019-05-01T01:07:18.376Z,69.27
2019-05-01T01:09:47.079Z,69.33
2019-05-01T01:12:15.985Z,68.91
2019-05-01T01:14:44.760Z,68.60
2019-05-01T01:17:13.473Z,68.61
2019-05-01T01:19:42.171Z,68.28
2019-05-01T01:22:10.890Z,67.92
2019-05-01T01:24:39.594Z,67.80
2019-05-01T01:27:08.356Z,67.98
2019-05-01T01:29:37.056Z,67.88
2019-05-01T01:32:05.767Z,67.84
2019-05-01T01:34:34.563Z,67.88
2019-05-01T01:37:03.269Z,67.97
2019-05-01T01:39:32.024Z,68.37
2019-05-01T01:42:00.719Z,68.03
2019-05-01T01:44:31.099Z,68.16
2019-05-01T01:47:01.511Z,68.31
2019-05-01T01:49:30.418Z,68.06
2019-05-01T01:51:59.265Z,68.01
2019-05-01T01:54:28.067Z,67.91
2019-05-01T01:56:57.177Z,67.64
2019-05-01T01:59:26.596Z,67.58
2019-05-01T02:02:03.068Z,67.37
2019-05-01T02:04:45.778Z,67.85
2019-05-01T02:07:14.482Z,67.97
2019-05-01T02:09:43.192Z,68.36
2019-05-01T02:12:12.099Z,68.44
2019-05-01T02:14:40.851Z,67.90
2019-05-01T02:17:09.551Z,66.96
2019-05-01T02:19:38.262Z,66.15
2019-05-01T02:22:06.975Z,66.25
2019-05-01T02:24:35.677Z,66.43
2019-05-01T02:27:14.947Z,67.24
2019-05-01T02:29:46.525Z,66.91
2019-05-01T02:32:17.026Z,66.58
2019-05-01T02:34:47.549Z,66.22
2019-05-01T02:37:17.961Z,65.76
2019-05-01T02:39:49.320Z,65.46
2019-05-01T02:42:20.931Z,65.29
2019-05-01T02:44:52.376Z,65.42
2019-05-01T02:47:24.001Z,65.07
2019-05-01T02:50:07.656Z,65.32
2019-05-01T02:52:38.294Z,65.45
2019-05-01T02:55:10.891Z,65.92
2019-05-01T02:57:41.086Z,65.07
2019-05-01T03:00:09.902Z,64.44
2019-05-01T03:02:39.611Z,64.86
2019-05-01T03:05:09.049Z,64.47
2019-05-01T03:07:39.061Z,63.85
2019-05-01T03:10:09.783Z,63.36
2019-05-01T03:12:41.682Z,63.01
2019-05-01T03:15:12.328Z,63.01
2019-05-01T03:17:44.414Z,61.46
2019-05-01T03:20:33.121Z,61.87
2019-05-01T03:23:16.033Z,61.80
2019-05-01T03:25:44.737Z,61.69
2019-05-01T03:28:14.380Z,61.45
2019-05-01T03:30:43.190Z,60.88
2019-05-01T03:33:12.073Z,61.06
2019-05-01T03:35:40.784Z,60.54
2019-05-01T03:38:09.806Z,60.78
2019-05-01T03:40:39.156Z,60.83
2019-05-01T03:43:08.463Z,60.92
2019-05-01T03:45:39.665Z,60.99
2019-05-01T03:48:08.884Z,60.62
2019-05-01T03:50:38.293Z,59.48
2019-05-01T03:53:07.150Z,60.07
2019-05-01T03:55:35.859Z,57.64
2019-05-01T03:58:05.562Z,56.71
2019-05-01T04:00:36.374Z,55.05
2019-05-01T04:03:18.680Z,53.72
2019-05-01T04:05:47.685Z,53.37
2019-05-01T04:08:17.497Z,51.85
2019-05-01T04:10:47.055Z,49.39
2019-05-01T04:13:15.748Z,47.11
2019-05-01T04:15:44.656Z,44.82
2019-05-01T04:18:13.484Z,43.41
2019-05-01T04:20:42.589Z,41.88
2019-05-01T04:23:11.652Z,40.04
2019-05-01T04:25:40.766Z,38.74
2019-05-01T04:28:27.577Z,38.47
2019-05-01T04:31:13.765Z,38.92
2019-05-01T04:33:44.492Z,39.63
2019-05-01T04:36:18.257Z,39.19
2019-05-01T04:38:47.074Z,37.81
2019-05-01T04:41:15.990Z,35.15
2019-05-01T04:43:44.997Z,35.08
2019-05-01T04:46:13.750Z,34.76
2019-05-01T04:48:42.752Z,35.99
2019-05-01T04:51:11.660Z,37.02
2019-05-01T04:53:40.473Z,36.96
2019-05-01T04:56:09.582Z,36.52
2019-05-01T04:58:38.589Z,37.96
2019-05-01T05:01:07.938Z,39.35
2019-05-01T05:03:36.743Z,39.05
2019-05-01T05:06:05.949Z,37.41
2019-05-01T05:08:35.021Z,34.38
2019-05-01T05:11:08.086Z,34.77
2019-05-01T05:13:38.854Z,35.34
2019-05-01T05:16:09.939Z,35.82
2019-05-01T05:18:38.857Z,40.53
2019-05-01T05:21:08.069Z,40.53
2019-05-01T05:23:36.980Z,40.95
2019-05-01T05:26:05.740Z,41.10
2019-05-01T05:28:36.143Z,42.20
2019-05-01T05:31:05.757Z,42.65
2019-05-01T05:33:35.975Z,42.94
2019-05-01T05:36:06.988Z,41.81
2019-05-01T05:38:50.497Z,40.64
2019-05-01T05:41:20.004Z,41.24
2019-05-01T05:43:49.414Z,39.51
2019-05-01T05:46:18.521Z,38.39
2019-05-01T05:48:47.378Z,41.31
2019-05-01T05:51:21.953Z,45.02
2019-05-01T05:53:55.115Z,47.81
2019-05-01T05:56:28.490Z,46.90
2019-05-01T05:59:00.943Z,47.95
2019-05-01T06:01:34.223Z,48.09
2019-05-01T06:04:13.980Z,47.79
2019-05-01T06:06:46.294Z,46.18
2019-05-01T06:09:16.719Z,45.30
2019-05-01T06:11:49.971Z,44.58
2019-05-01T06:14:22.295Z,43.59
2019-05-01T06:16:54.079Z,44.18
2019-05-01T06:19:24.430Z,44.09
2019-05-01T06:21:59.260Z,43.11
2019-05-01T06:24:35.782Z,43.13
2019-05-01T06:27:03.009Z,42.49
2019-05-01T06:29:35.779Z,44.31
2019-05-01T06:32:02.482Z,46.26
2019-05-01T06:34:31.601Z,45.14
2019-05-01T06:37:00.466Z,45.09
2019-05-01T06:39:29.285Z,43.89
2019-05-01T06:41:58.389Z,43.62
2019-05-01T06:44:33.347Z,41.37
2019-05-01T06:47:05.127Z,43.21
2019-05-01T06:50:01.108Z,44.49
2019-05-01T06:52:29.348Z,44.48
2019-05-01T06:54:59.515Z,44.87
2019-05-01T06:57:28.931Z,44.55
2019-05-01T07:00:03.293Z,43.51
2019-05-01T07:02:35.055Z,42.98
2019-05-01T07:05:02.755Z,42.83
2019-05-01T07:07:33.176Z,43.46
2019-05-01T07:10:02.485Z,43.07
2019-05-01T07:12:32.703Z,43.89
2019-05-01T07:15:02.946Z,43.76
2019-05-01T07:17:31.753Z,44.06
2019-05-01T07:20:12.024Z,43.67
2019-05-01T07:22:42.148Z,43.31
2019-05-01T07:25:10.423Z,43.37
2019-05-01T07:27:39.133Z,42.76
2019-05-01T07:30:10.600Z,43.79
2019-05-01T07:32:41.196Z,43.23
2019-05-01T07:35:10.092Z,42.62
2019-05-01T07:37:38.992Z,42.50
2019-05-01T07:40:07.900Z,42.32
2019-05-01T07:42:38.384Z,41.78
2019-05-01T07:45:19.612Z,42.69
2019-05-01T07:47:49.892Z,42.69
2019-05-01T07:50:19.055Z,42.07
2019-05-01T07:52:52.246Z,42.47
2019-05-01T07:55:21.595Z,42.89
2019-05-01T07:57:50.500Z,42.66
2019-05-01T08:00:25.356Z,42.14
2019-05-01T08:02:54.066Z,42.82
2019-05-01T08:05:22.770Z,43.12
2019-05-01T08:07:51.491Z,42.74
2019-05-01T08:10:21.062Z,43.43
2019-05-01T08:12:50.684Z,41.73
2019-05-01T08:15:22.629Z,42.23
2019-05-01T08:17:53.217Z,42.09
2019-05-01T08:20:30.635Z,43.10
2019-05-01T08:22:59.338Z,41.94
2019-05-01T08:25:28.779Z,42.00
2019-05-01T08:28:09.110Z,42.32
2019-05-01T08:30:54.634Z,40.90
2019-05-01T08:33:27.640Z,41.89
2019-05-01T08:35:56.355Z,40.07
2019-05-01T08:38:25.062Z,40.58
2019-05-01T08:40:55.441Z,41.09
2019-05-01T08:43:24.239Z,40.86
2019-05-01T08:46:00.557Z,39.83
2019-05-01T08:48:35.877Z,40.65
2019-05-01T08:51:03.956Z,39.69
2019-05-01T08:53:32.666Z,38.34
2019-05-01T08:56:01.381Z,37.98
2019-05-01T08:58:30.123Z,37.97
2019-05-01T09:00:58.887Z,36.69
2019-05-01T09:03:27.597Z,36.83
2019-05-01T09:05:57.368Z,35.66
2019-05-01T09:08:26.946Z,35.99
2019-05-01T09:11:00.197Z,36.56
2019-05-01T09:13:27.411Z,36.27
2019-05-01T09:15:56.336Z,36.72
2019-05-01T09:18:25.063Z,36.25
2019-05-01T09:20:55.336Z,37.08
2019-05-01T09:23:24.050Z,36.59
2019-05-01T09:26:06.802Z,36.88
2019-05-01T09:28:39.366Z,36.92
2019-05-01T09:31:07.839Z,36.62
2019-05-01T09:33:36.542Z,36.99
2019-05-01T09:36:05.269Z,35.85
2019-05-01T09:38:34.080Z,37.08
2019-05-01T09:41:02.820Z,36.72
2019-05-01T09:43:35.631Z,37.15
2019-05-01T09:46:01.957Z,35.92
2019-05-01T09:48:30.675Z,35.34
2019-05-01T09:51:06.999Z,34.92
2019-05-01T09:53:37.323Z,35.46
2019-05-01T09:56:13.871Z,36.35
2019-05-01T09:58:42.634Z,36.01
2019-05-01T10:01:11.341Z,36.28
2019-05-01T10:03:40.045Z,36.08
2019-05-01T10:06:12.731Z,35.31
2019-05-01T10:08:39.881Z,36.42
2019-05-01T10:11:09.661Z,35.95
2019-05-01T10:13:38.417Z,35.50
2019-05-01T10:16:07.131Z,35.46
2019-05-01T10:18:35.832Z,35.89
2019-05-01T10:21:04.550Z,35.11
2019-05-01T10:23:33.259Z,35.60
2019-05-01T10:26:03.591Z,36.32
2019-05-01T10:28:45.218Z,35.77
2019-05-01T10:31:32.968Z,35.07
2019-05-01T10:34:07.554Z,35.51
2019-05-01T10:36:38.038Z,35.39
2019-05-01T10:39:09.244Z,35.51
2019-05-01T10:41:41.011Z,35.77
2019-05-01T10:44:08.401Z,36.54
2019-05-01T10:46:37.111Z,34.85
2019-05-01T10:49:05.856Z,35.13
2019-05-01T10:51:34.568Z,34.52
2019-05-01T10:54:03.275Z,34.55
2019-05-01T10:56:32.037Z,34.41
2019-05-01T10:59:00.742Z,34.90
2019-05-01T11:01:31.015Z,34.66
2019-05-01T11:03:59.750Z,34.96
2019-05-01T11:06:28.457Z,34.22
2019-05-01T11:08:57.199Z,34.15
2019-05-01T11:11:25.903Z,33.11
2019-05-01T11:13:54.617Z,33.49
2019-05-01T11:16:23.360Z,33.80
2019-05-01T11:18:52.061Z,33.55
2019-05-01T11:21:20.786Z,34.69
2019-05-01T11:23:49.479Z,35.79
2019-05-01T11:26:18.181Z,34.76
2019-05-01T11:28:46.950Z,33.16
2019-05-01T11:31:17.234Z,33.79
2019-05-01T11:33:59.595Z,33.75
2019-05-01T11:36:46.294Z,34.35
2019-05-01T11:39:25.626Z,33.62
2019-05-01T11:42:07.864Z,33.86
2019-05-01T11:44:36.617Z,33.54
2019-05-01T11:47:05.328Z,33.85
2019-05-01T11:49:34.034Z,34.18
2019-05-01T11:52:02.801Z,33.78
2019-05-01T11:54:31.512Z,34.41
2019-05-01T11:57:00.226Z,35.13
2019-05-01T11:59:28.931Z,33.12
2019-05-01T12:01:57.643Z,32.36
2019-05-01T12:04:26.395Z,33.46
2019-05-01T12:06:55.108Z,33.07
2019-05-01T12:09:23.808Z,33.06
2019-05-01T12:11:54.098Z,32.05
2019-05-01T12:14:22.795Z,32.11
2019-05-01T12:16:55.783Z,33.18
2019-05-01T12:19:26.058Z,33.59
2019-05-01T12:21:54.776Z,34.04
2019-05-01T12:24:23.488Z,33.73
2019-05-01T12:26:52.203Z,33.32
2019-05-01T12:29:20.944Z,32.89
2019-05-01T12:31:49.648Z,33.49
2019-05-01T12:34:18.430Z,32.77
2019-05-01T12:36:47.857Z,34.00
2019-05-01T12:39:18.129Z,33.22
2019-05-01T12:41:48.550Z,34.55
2019-05-01T12:44:17.258Z,34.87
2019-05-01T12:46:50.494Z,33.30
2019-05-01T12:49:19.212Z,34.14
2019-05-01T12:51:49.489Z,33.17
2019-05-01T12:54:22.813Z,33.90
2019-05-01T12:56:53.093Z,33.08
2019-05-01T12:59:21.799Z,32.97
2019-05-01T13:01:50.508Z,33.87
2019-05-01T13:04:19.215Z,32.81
2019-05-01T13:06:49.870Z,33.27
2019-05-01T13:09:18.579Z,33.00
2019-05-01T13:11:47.279Z,32.36
2019-05-01T13:14:15.994Z,33.59
2019-05-01T13:16:44.724Z,32.14
2019-05-01T13:19:13.475Z,31.88
2019-05-01T13:21:42.187Z,32.21
2019-05-01T13:24:10.893Z,32.57
2019-05-01T13:26:41.320Z,31.97
2019-05-01T13:29:11.595Z,31.75
2019-05-01T13:31:50.857Z,32.42
2019-05-01T13:34:19.562Z,31.59
2019-05-01T13:36:48.274Z,33.01
2019-05-01T13:39:17.284Z,31.76
2019-05-01T13:41:46.053Z,32.99
2019-05-01T13:44:14.733Z,32.40
2019-05-01T13:46:43.439Z,32.16
2019-05-01T13:49:12.296Z,31.65
2019-05-01T13:51:41.007Z,32.99
2019-05-01T13:54:10.148Z,32.61
2019-05-01T13:56:38.834Z,32.73
2019-05-01T13:59:09.214Z,32.19
2019-05-01T14:01:38.041Z,33.17
2019-05-01T14:04:06.948Z,31.64
2019-05-01T14:06:35.657Z,32.07
2019-05-01T14:09:06.473Z,32.07
2019-05-01T14:11:35.181Z,31.64
2019-05-01T14:14:04.028Z,31.03
2019-05-01T14:16:32.737Z,31.23
2019-05-01T14:19:01.449Z,31.26
2019-05-01T14:21:31.735Z,31.98
2019-05-01T14:24:18.104Z,31.48
2019-05-01T14:26:46.821Z,32.52
2019-05-01T14:29:15.523Z,32.63
2019-05-01T14:31:44.274Z,33.28
2019-05-01T14:34:12.984Z,33.26
2019-05-01T14:36:41.705Z,33.78
2019-05-01T14:39:10.616Z,33.85
2019-05-01T14:41:39.321Z,33.85
2019-05-01T14:44:08.153Z,33.87
2019-05-01T14:46:36.858Z,34.34
2019-05-01T14:49:05.666Z,33.79
2019-05-01T14:51:34.487Z,33.75
2019-05-01T14:54:03.165Z,34.33
2019-05-01T14:56:31.931Z,33.77
2019-05-01T14:59:00.683Z,34.56
2019-05-01T15:01:29.426Z,34.74
2019-05-01T15:03:58.143Z,34.21
2019-05-01T15:06:26.848Z,34.75
2019-05-01T15:08:55.620Z,33.71
2019-05-01T15:11:24.343Z,34.37
2019-05-01T15:13:57.292Z,34.32
2019-05-01T15:16:43.906Z,34.73
2019-05-01T15:19:14.213Z,35.33
2019-05-01T15:21:42.921Z,35.34
2019-05-01T15:24:11.642Z,35.55
2019-05-01T15:26:40.421Z,35.70
2019-05-01T15:29:09.415Z,36.13
2019-05-01T15:31:38.129Z,36.03
2019-05-01T15:34:06.840Z,36.53
2019-05-01T15:36:35.548Z,36.56
2019-05-01T15:39:07.105Z,36.68
2019-05-01T15:41:37.379Z,36.88
2019-05-01T15:44:07.737Z,37.08
2019-05-01T15:46:38.025Z,37.06
2019-05-01T15:49:06.738Z,36.63
2019-05-01T15:51:35.648Z,37.25
2019-05-01T15:54:04.356Z,37.59
2019-05-01T15:56:33.064Z,37.22
2019-05-01T15:59:01.783Z,37.41
2019-05-01T16:01:30.489Z,37.71
2019-05-01T16:03:59.198Z,37.60
2019-05-01T16:06:27.898Z,37.36
2019-05-01T16:08:56.650Z,38.02
2019-05-01T16:11:32.943Z,38.45
2019-05-01T16:14:02.212Z,38.76
2019-05-01T16:16:30.939Z,39.13
2019-05-01T16:18:59.654Z,38.93
2019-05-01T16:21:28.401Z,39.60
2019-05-01T16:23:57.109Z,39.52
2019-05-01T16:26:25.836Z,39.36
2019-05-01T16:28:54.563Z,39.29
2019-05-01T16:31:23.276Z,39.56
2019-05-01T16:33:52.033Z,39.87
2019-05-01T16:36:20.740Z,40.19
2019-05-01T16:39:09.438Z,40.50
2019-05-01T16:41:38.137Z,40.58
2019-05-01T16:44:06.844Z,40.89
2019-05-01T16:46:35.775Z,40.87
2019-05-01T16:49:04.688Z,41.01
2019-05-01T16:51:33.491Z,40.98
2019-05-01T16:54:02.203Z,41.11
2019-05-01T16:56:33.121Z,41.09
2019-05-01T16:59:01.397Z,41.28
2019-05-01T17:01:48.018Z,40.79
2019-05-01T17:04:30.424Z,41.29
2019-05-01T17:07:06.698Z,41.30
2019-05-01T17:09:39.850Z,41.73
2019-05-01T17:12:10.922Z,42.06
2019-05-01T17:14:39.521Z,42.65
2019-05-01T17:17:10.044Z,42.84
2019-05-01T17:19:38.747Z,43.19
2019-05-01T17:22:09.303Z,43.20
2019-05-01T17:24:37.954Z,43.26
2019-05-01T17:27:06.668Z,43.54
2019-05-01T17:29:35.377Z,43.66
2019-05-01T17:32:05.374Z,43.41
2019-05-01T17:34:34.282Z,43.47
2019-05-01T17:37:04.182Z,43.25
2019-05-01T17:39:32.897Z,43.31
2019-05-01T17:42:02.201Z,43.29
2019-05-01T17:44:32.216Z,43.40
2019-05-01T17:47:00.940Z,43.55
2019-05-01T17:49:29.693Z,43.91
2019-05-01T17:51:58.428Z,44.01
2019-05-01T17:54:27.138Z,43.81
2019-05-01T17:56:55.897Z,44.04
2019-05-01T17:59:24.596Z,44.20
2019-05-01T18:01:54.911Z,44.11
2019-05-01T18:04:28.320Z,43.97
2019-05-01T18:06:57.030Z,44.10
2019-05-01T18:09:25.748Z,43.84
2019-05-01T18:11:54.474Z,43.78
2019-05-01T18:14:23.233Z,43.80
2019-05-01T18:16:51.953Z,44.27
2019-05-01T18:19:20.673Z,43.93
2019-05-01T18:21:51.841Z,43.66
2019-05-01T18:24:28.463Z,44.00
2019-05-01T18:27:07.807Z,44.27
2019-05-01T18:29:50.058Z,43.89
2019-05-01T18:32:23.318Z,44.27
2019-05-01T18:34:52.028Z,44.96
2019-05-01T18:37:31.305Z,45.44
2019-05-01T18:39:59.017Z,45.59
2019-05-01T18:42:27.946Z,46.58
2019-05-01T18:44:56.661Z,46.74
2019-05-01T18:47:26.135Z,46.89
2019-05-01T18:49:54.876Z,47.62
2019-05-01T18:52:23.554Z,47.42
2019-05-01T18:54:52.293Z,47.36
2019-05-01T18:57:20.998Z,47.49
2019-05-01T18:59:49.752Z,47.53
2019-05-01T19:02:20.574Z,47.51
2019-05-01T19:04:48.900Z,47.90
2019-05-01T19:07:17.618Z,48.45
2019-05-01T19:09:46.337Z,48.67
2019-05-01T19:12:16.000Z,48.79
2019-05-01T19:14:44.731Z,48.69
2019-05-01T19:17:13.434Z,48.37
2019-05-01T19:19:42.180Z,48.62
2019-05-01T19:22:10.885Z,49.00
2019-05-01T19:24:40.179Z,48.91
2019-05-01T19:27:09.115Z,48.99
2019-05-01T19:29:37.838Z,49.44
2019-05-01T19:32:07.306Z,50.46
2019-05-01T19:34:36.022Z,52.69
2019-05-01T19:37:04.776Z,53.53
2019-05-01T19:39:43.361Z,54.36
2019-05-01T19:42:04.390Z,55.86
2019-05-01T19:44:33.142Z,57.04
2019-05-01T19:47:01.990Z,57.87
2019-05-01T19:49:31.042Z,61.33
2019-05-01T19:52:00.618Z,60.94
2019-05-01T19:54:30.302Z,59.93
2019-05-01T19:56:59.049Z,62.25
2019-05-01T19:59:27.792Z,63.99
2019-05-01T20:01:56.508Z,64.24
2019-05-01T20:04:25.255Z,64.82
2019-05-01T20:06:54.127Z,64.42
2019-05-01T20:09:24.344Z,63.93
2019-05-01T20:11:53.079Z,64.66
2019-05-01T20:14:21.786Z,64.21
2019-05-01T20:16:50.992Z,62.16
2019-05-01T20:19:19.790Z,62.58
2019-05-01T20:21:48.503Z,62.31
2019-05-01T20:24:19.153Z,62.01
2019-05-01T20:26:47.690Z,61.67
2019-05-01T20:29:17.785Z,61.36
2019-05-01T20:31:50.827Z,62.29
2019-05-01T20:34:18.637Z,63.17
2019-05-01T20:36:47.570Z,63.59
2019-05-01T20:39:16.274Z,64.67
2019-05-01T20:41:44.978Z,66.13
2019-05-01T20:44:14.087Z,66.57
2019-05-01T20:46:44.119Z,66.08
2019-05-01T20:49:12.865Z,67.46
2019-05-01T20:51:41.573Z,66.79
2019-05-01T20:54:10.280Z,66.50
2019-05-01T20:56:49.449Z,67.40
2019-05-01T20:59:18.156Z,67.78
2019-05-01T21:01:46.869Z,68.34
2019-05-01T21:04:17.142Z,68.23
2019-05-01T21:06:47.476Z,69.19
2019-05-01T21:09:17.752Z,69.34
2019-05-01T21:11:48.873Z,68.87
2019-05-01T21:14:22.763Z,69.06
2019-05-01T21:16:48.598Z,69.07
2019-05-01T21:19:17.303Z,68.77
2019-05-01T21:21:46.016Z,69.30
2019-05-01T21:24:14.737Z,69.11
2019-05-01T21:26:43.500Z,67.99
2019-05-01T21:29:14.011Z,67.61
2019-05-01T21:31:44.072Z,66.39
2019-05-01T21:34:14.537Z,66.26
2019-05-01T21:36:47.601Z,66.17
2019-05-01T21:39:15.008Z,66.55
2019-05-01T21:41:44.379Z,66.92
2019-05-01T21:44:13.243Z,66.65
2019-05-01T21:46:43.151Z,65.85
2019-05-01T21:49:12.941Z,65.54
2019-05-01T21:51:45.925Z,66.71
2019-05-01T21:54:15.947Z,66.33
2019-05-01T21:56:42.953Z,67.20
2019-05-01T21:59:11.630Z,67.52
2019-05-01T22:01:40.466Z,65.94
2019-05-01T22:04:09.175Z,66.07
2019-05-01T22:06:37.878Z,65.49
2019-05-01T22:09:10.527Z,65.14
2019-05-01T22:11:39.719Z,64.95
2019-05-01T22:14:09.995Z,65.10
2019-05-01T22:16:38.708Z,63.38
2019-05-01T22:19:12.012Z,64.32
2019-05-01T22:21:48.456Z,64.71
2019-05-01T22:24:27.731Z,64.26
2019-05-01T22:27:03.858Z,64.29
2019-05-01T22:29:34.278Z,64.36
2019-05-01T22:32:07.638Z,65.15
2019-05-01T22:34:49.982Z,64.12
2019-05-01T22:37:18.719Z,63.40
2019-05-01T22:39:48.995Z,63.67
2019-05-01T22:42:17.696Z,63.43
2019-05-01T22:44:46.414Z,62.53
2019-05-01T22:47:16.261Z,63.72
2019-05-01T22:49:45.139Z,63.56
2019-05-01T22:52:13.846Z,63.11
2019-05-01T22:54:44.984Z,64.71
2019-05-01T22:57:13.694Z,64.70
2019-05-01T22:59:42.404Z,64.85
2019-05-01T23:02:29.617Z,65.88
2019-05-01T23:04:58.408Z,65.79
2019-05-01T23:07:27.113Z,65.78
2019-05-01T23:09:59.330Z,65.73
2019-05-01T23:12:26.257Z,65.75
2019-05-01T23:14:54.969Z,65.95
2019-05-01T23:17:34.893Z,65.32
2019-05-01T23:20:04.078Z,65.84
2019-05-01T23:22:32.393Z,66.10
2019-05-01T23:25:01.154Z,66.31
2019-05-01T23:27:30.785Z,66.57
2019-05-01T23:29:59.628Z,66.19
2019-05-01T23:32:28.347Z,65.43
2019-05-01T23:34:57.051Z,64.79
2019-05-01T23:37:26.117Z,64.30
2019-05-01T23:39:54.883Z,64.65
2019-05-01T23:42:23.585Z,64.82
2019-05-01T23:44:52.302Z,64.40
2019-05-01T23:47:21.305Z,63.10
2019-05-01T23:49:52.584Z,64.25
2019-05-01T23:52:20.482Z,64.55
2019-05-01T23:54:49.210Z,64.46
2019-05-01T23:57:18.848Z,64.99
2019-05-01T23:59:48.348Z,64.24
